Time;durP1;ratioP1;P1;durP2;ratioP2;P2;SDS_P1;SDS_P2;PMS_P1;PMS_P2;Temp;Humidity;BMP_temperature;BMP_pressure;BME280_temperature;BME280_humidity;BME280_pressure;Samples;Min_cycle;Max_cycle;Signal;HPM_P1;HPM_P2
2024/02/18 00:01:55;;;;;;;;;;;;;;;4.71;90.16;101099.22;5116608;28;19965;-66
2024/02/18 00:04:24;;;;;;;;;;;;;;;4.65;89.89;101096.41;5114671;28;19927;-66
2024/02/18 00:06:53;;;;;;;;;;;;;;;4.55;89.93;101101.84;5116221;28;19920;-67
2024/02/18 00:09:22;;;;;;;;;;;;;;;4.49;89.85;101109.13;5116029;28;19919;-66
2024/02/18 00:11:51;;;;;;;;;;;;;;;4.43;89.76;101103.81;5116131;28;19924;-67
2024/02/18 00:14:22;;;;;;;;;;;;;;;4.41;89.46;101102.88;5116104;28;19920;-66
2024/02/18 00:16:51;;;;;;;;;;;;;;;4.38;89.68;101098.53;5115006;28;19923;-66
2024/02/18 00:19:19;;;;;;;;;;;;;;;4.31;89.47;101105.75;5114791;28;19920;-66
2024/02/18 00:21:50;;;;;;;;;;;;;;;4.37;89.51;101103.50;5115937;28;19920;-66
2024/02/18 00:24:18;;;;;;;;;;;;;;;4.35;89.30;101107.63;5114727;28;19919;-67
2024/02/18 00:26:49;;;;;;;;;;;;;;;4.32;89.18;101102.44;5116129;27;19923;-66
2024/02/18 00:29:28;;;;;;;;;;;;;;;4.26;89.38;101104.69;5115156;28;19955;-66
2024/02/18 00:31:56;;;;;;;;;;;;;;;4.23;89.42;101112.09;5114916;28;20345;-66
2024/02/18 00:34:25;;;;;;;;;;;;;;;4.22;89.31;101112.91;5115667;28;19958;-67
2024/02/18 00:36:54;;;;;;;;;;;;;;;4.21;89.39;101117.09;5115557;28;20023;-67
2024/02/18 00:39:22;;;;;;;;;;;;;;;4.22;89.14;101121.38;5115521;28;19919;-66
2024/02/18 00:41:51;;;;;;;;;;;;;;;4.22;89.36;101117.97;5115500;28;20365;-66
2024/02/18 00:44:23;;;;;;;;;;;;;;;4.17;89.60;101124.47;5115738;28;19920;-66
2024/02/18 00:46:53;;;;;;;;;;;;;;;4.11;89.42;101119.09;5115789;28;19920;-66
2024/02/18 00:49:33;;;;;;;;;;;;;;;4.13;89.62;101117.53;5115476;28;19926;-66
2024/02/18 00:52:03;;;;;;;;;;;;;;;4.11;89.59;101114.91;5115594;28;20427;-66
2024/02/18 00:54:32;;;;;;;;;;;;;;;4.04;89.21;101113.75;5115656;28;19920;-67
2024/02/18 00:57:00;;;;;;;;;;;;;;;4.00;89.41;101116.94;5115493;28;19966;-66
2024/02/18 00:59:29;;;;;;;;;;;;;;;3.95;89.63;101113.31;5114000;28;19972;-66
2024/02/18 01:01:59;;;;;;;;;;;;;;;3.94;89.64;101109.06;5115163;28;19926;-66
2024/02/18 01:04:28;;;;;;;;;;;;;;;3.96;89.64;101114.16;5115450;28;19926;-65
2024/02/18 01:06:58;;;;;;;;;;;;;;;3.97;89.81;101110.88;5114279;28;19920;-66
2024/02/18 01:09:26;;;;;;;;;;;;;;;3.94;89.76;101111.59;5115104;28;19989;-66
2024/02/18 01:11:56;;;;;;;;;;;;;;;3.86;89.32;101117.91;5114992;28;20331;-66
2024/02/18 01:14:26;;;;;;;;;;;;;;;3.78;89.51;101109.13;5116134;28;20606;-66
2024/02/18 01:16:54;;;;;;;;;;;;;;;3.76;89.54;101115.75;5115146;28;19920;-67
2024/02/18 01:19:24;;;;;;;;;;;;;;;3.81;89.62;101109.28;5115149;28;19919;-67
2024/02/18 01:21:54;;;;;;;;;;;;;;;3.82;89.49;101113.50;5114945;28;19943;-67
2024/02/18 01:24:22;;;;;;;;;;;;;;;3.79;89.52;101110.81;5114835;28;20369;-67
2024/02/18 01:26:51;;;;;;;;;;;;;;;3.79;89.40;101105.78;5115099;28;20019;-67
2024/02/18 01:29:19;;;;;;;;;;;;;;;3.78;89.44;101108.25;5114638;28;19926;-67
2024/02/18 01:31:48;;;;;;;;;;;;;;;3.78;88.88;101109.13;5115064;28;19919;-67
2024/02/18 01:34:16;;;;;;;;;;;;;;;3.78;89.43;101111.63;5115008;28;19970;-64
2024/02/18 01:36:46;;;;;;;;;;;;;;;3.72;89.20;101103.75;5114641;28;19972;-66
2024/02/18 01:39:15;;;;;;;;;;;;;;;3.65;88.75;101111.81;5114876;28;19920;-66
2024/02/18 01:41:43;;;;;;;;;;;;;;;3.58;88.87;101109.78;5114639;28;19924;-66
2024/02/18 01:44:12;;;;;;;;;;;;;;;3.57;89.00;101113.09;5114888;28;19965;-66
2024/02/18 01:46:40;;;;;;;;;;;;;;;3.58;88.86;101114.81;5115107;28;20270;-66
2024/02/18 01:49:09;;;;;;;;;;;;;;;3.56;89.10;101126.50;5114750;27;19919;-66
2024/02/18 01:51:38;;;;;;;;;;;;;;;3.50;89.33;101123.69;5114801;28;19923;-66
2024/02/18 01:54:08;;;;;;;;;;;;;;;3.49;89.00;101124.47;5114746;28;19930;-66
2024/02/18 01:56:38;;;;;;;;;;;;;;;3.39;88.71;101123.13;5115636;28;19945;-66
2024/02/18 01:59:06;;;;;;;;;;;;;;;3.34;89.23;101123.69;5113142;28;19988;-66
2024/02/18 02:01:35;;;;;;;;;;;;;;;3.39;89.18;101122.25;5113191;28;19973;-66
2024/02/18 02:04:04;;;;;;;;;;;;;;;3.42;89.07;101117.38;5115968;28;19920;-66
2024/02/18 02:06:32;;;;;;;;;;;;;;;3.45;88.91;101117.53;5118933;28;19919;-66
2024/02/18 02:09:01;;;;;;;;;;;;;;;3.40;88.79;101129.03;5118719;28;19923;-66
2024/02/18 02:11:32;;;;;;;;;;;;;;;3.41;88.70;101124.88;5118412;28;19919;-66
2024/02/18 02:14:01;;;;;;;;;;;;;;;3.45;88.91;101126.75;5119126;28;19923;-66
2024/02/18 02:16:30;;;;;;;;;;;;;;;3.45;89.11;101130.16;5118764;28;19927;-66
2024/02/18 02:18:58;;;;;;;;;;;;;;;3.43;88.95;101128.34;5118564;28;19942;-65
2024/02/18 02:21:27;;;;;;;;;;;;;;;3.37;88.54;101128.88;5118441;28;19924;-66
2024/02/18 02:23:56;;;;;;;;;;;;;;;3.28;88.49;101124.25;5118529;28;19919;-66
2024/02/18 02:26:25;;;;;;;;;;;;;;;3.28;88.85;101118.31;5118079;28;19927;-66
2024/02/18 02:29:02;;;;;;;;;;;;;;;3.28;88.60;101125.91;5118484;28;19919;-66
2024/02/18 02:31:31;;;;;;;;;;;;;;;3.28;89.12;101125.91;5118506;28;19924;-66
2024/02/18 02:33:59;;;;;;;;;;;;;;;3.26;88.64;101135.06;5118431;28;19927;-66
2024/02/18 02:36:28;;;;;;;;;;;;;;;3.25;88.98;101138.34;5117958;28;19919;-65
2024/02/18 02:38:56;;;;;;;;;;;;;;;3.16;88.43;101132.84;5118175;28;20269;-66
2024/02/18 02:41:26;;;;;;;;;;;;;;;3.18;88.66;101131.25;5116612;28;19920;-66
2024/02/18 02:43:54;;;;;;;;;;;;;;;3.14;88.54;101127.69;5118121;28;19919;-66
2024/02/18 02:46:24;;;;;;;;;;;;;;;3.15;88.87;101131.09;5118178;28;19920;-66
2024/02/18 02:48:53;;;;;;;;;;;;;;;3.16;88.99;101125.25;5117869;28;20365;-66
2024/02/18 02:51:22;;;;;;;;;;;;;;;3.14;88.40;101130.22;5116189;28;20373;-66
2024/02/18 02:53:50;;;;;;;;;;;;;;;3.14;88.52;101126.84;5118003;28;20017;-66
2024/02/18 02:56:19;;;;;;;;;;;;;;;3.16;88.95;101127.78;5116787;28;19926;-66
2024/02/18 02:58:48;;;;;;;;;;;;;;;3.16;88.89;101127.78;5117644;28;19947;-66
2024/02/18 03:01:16;;;;;;;;;;;;;;;3.20;88.46;101124.63;5117701;28;19927;-66
2024/02/18 03:03:46;;;;;;;;;;;;;;;3.19;88.64;101127.97;5117710;28;19919;-66
2024/02/18 03:06:15;;;;;;;;;;;;;;;3.19;88.71;101138.03;5118174;28;20029;-65
2024/02/18 03:08:44;;;;;;;;;;;;;;;3.20;88.74;101142.28;5117707;28;19927;-66
2024/02/18 03:11:12;;;;;;;;;;;;;;;3.19;89.01;101135.53;5117507;28;19964;-66
2024/02/18 03:13:41;;;;;;;;;;;;;;;3.18;88.77;101143.88;5116412;28;19926;-67
2024/02/18 03:16:09;;;;;;;;;;;;;;;3.20;89.03;101134.72;5116162;27;19927;-66
2024/02/18 03:18:38;;;;;;;;;;;;;;;3.18;88.89;101141.34;5117809;28;19946;-66
2024/02/18 03:21:08;;;;;;;;;;;;;;;3.12;88.71;101141.88;5117346;28;19926;-66
2024/02/18 03:23:37;;;;;;;;;;;;;;;3.17;88.84;101149.69;5117107;28;20459;-66
2024/02/18 03:26:05;;;;;;;;;;;;;;;3.20;89.26;101149.84;5115628;28;19919;-67
2024/02/18 03:28:34;;;;;;;;;;;;;;;3.23;88.88;101155.06;5117346;28;19920;-66
2024/02/18 03:31:02;;;;;;;;;;;;;;;3.27;89.35;101156.94;5117573;28;19920;-66
2024/02/18 03:33:31;;;;;;;;;;;;;;;3.26;88.89;101165.31;5117008;28;19966;-66
2024/02/18 03:36:01;;;;;;;;;;;;;;;3.30;89.32;101158.00;5116757;28;20357;-66
2024/02/18 03:38:31;;;;;;;;;;;;;;;3.31;89.11;101154.66;5117225;28;19919;-65
2024/02/18 03:41:00;;;;;;;;;;;;;;;3.35;88.87;101165.78;5116772;28;20339;-66
2024/02/18 03:43:30;;;;;;;;;;;;;;;3.39;89.08;101163.50;5116605;28;19924;-66
2024/02/18 03:45:59;;;;;;;;;;;;;;;3.40;89.16;101169.41;5117639;28;20368;-66
2024/02/18 03:48:28;;;;;;;;;;;;;;;3.42;89.40;101166.97;5116903;28;19923;-66
2024/02/18 03:50:57;;;;;;;;;;;;;;;3.44;89.39;101165.38;5116924;28;19919;-66
2024/02/18 03:53:25;;;;;;;;;;;;;;;3.49;89.99;101164.84;5116794;28;19926;-66
2024/02/18 03:55:55;;;;;;;;;;;;;;;3.52;89.63;101164.13;5117363;28;19919;-66
2024/02/18 03:58:23;;;;;;;;;;;;;;;3.54;90.00;101163.41;5115463;28;19927;-66
2024/02/18 04:00:52;;;;;;;;;;;;;;;3.53;89.79;101163.34;5116498;28;19927;-66
2024/02/18 04:03:20;;;;;;;;;;;;;;;3.51;89.34;101157.34;5115105;28;19969;-66
2024/02/18 04:05:48;;;;;;;;;;;;;;;3.50;89.85;101166.59;5116632;28;19923;-66
2024/02/18 04:08:17;;;;;;;;;;;;;;;3.49;90.00;101157.28;5116574;28;19926;-66
2024/02/18 04:10:46;;;;;;;;;;;;;;;3.49;89.49;101162.31;5115323;28;20254;-66
2024/02/18 04:13:15;;;;;;;;;;;;;;;3.49;90.08;101162.31;5116409;28;19919;-66
2024/02/18 04:15:44;;;;;;;;;;;;;;;3.50;89.56;101156.50;5116415;28;19972;-66
2024/02/18 04:18:13;;;;;;;;;;;;;;;3.44;89.78;101163.72;5115196;28;19980;-66
2024/02/18 04:20:41;;;;;;;;;;;;;;;3.39;89.59;101165.16;5116307;28;19927;-66
2024/02/18 04:23:10;;;;;;;;;;;;;;;3.37;89.81;101174.31;5115913;28;19972;-66
2024/02/18 04:25:38;;;;;;;;;;;;;;;3.42;89.82;101170.38;5115831;27;20023;-66
2024/02/18 04:28:07;;;;;;;;;;;;;;;3.38;89.91;101156.72;5115668;28;19919;-66
2024/02/18 04:30:37;;;;;;;;;;;;;;;3.37;89.90;101160.03;5116111;28;19942;-66
2024/02/18 04:33:06;;;;;;;;;;;;;;;3.36;89.93;101164.97;5115116;28;19920;-66
2024/02/18 04:35:34;;;;;;;;;;;;;;;3.33;89.48;101168.25;5115981;28;19919;-66
2024/02/18 04:38:04;;;;;;;;;;;;;;;3.26;89.44;101165.31;5115980;28;19919;-66
2024/02/18 04:40:32;;;;;;;;;;;;;;;3.22;89.61;101174.38;5115571;28;19968;-66
2024/02/18 04:43:00;;;;;;;;;;;;;;;3.24;89.87;101172.78;5114382;28;20293;-66
2024/02/18 04:45:29;;;;;;;;;;;;;;;3.24;89.70;101172.78;5115769;28;19949;-66
2024/02/18 04:48:00;;;;;;;;;;;;;;;3.27;90.51;101180.53;5115778;28;19920;-66
2024/02/18 04:50:29;;;;;;;;;;;;;;;3.27;90.10;101172.09;5116106;28;20400;-66
2024/02/18 04:52:57;;;;;;;;;;;;;;;3.31;90.94;101174.00;5115728;28;19919;-66
2024/02/18 04:55:26;;;;;;;;;;;;;;;3.38;90.30;101171.00;5115610;28;19919;-66
2024/02/18 04:57:54;;;;;;;;;;;;;;;3.51;90.60;101173.34;5115541;28;19919;-66
2024/02/18 05:00:23;;;;;;;;;;;;;;;3.53;91.24;101171.78;5115230;28;19919;-66
2024/02/18 05:02:51;;;;;;;;;;;;;;;3.48;90.80;101183.28;5115755;28;19924;-66
2024/02/18 05:05:21;;;;;;;;;;;;;;;3.39;90.77;101173.59;5115413;28;20323;-66
2024/02/18 05:07:50;;;;;;;;;;;;;;;3.37;91.04;101175.19;5114501;28;20026;-66
2024/02/18 05:10:18;;;;;;;;;;;;;;;3.33;90.90;101177.47;5115183;28;20365;-66
2024/02/18 05:12:47;;;;;;;;;;;;;;;3.35;91.16;101175.88;5115294;28;19927;-66
2024/02/18 05:15:15;;;;;;;;;;;;;;;3.28;91.05;101183.94;5115235;28;19919;-65
2024/02/18 05:17:44;;;;;;;;;;;;;;;3.25;91.11;101174.53;5113789;28;20328;-65
2024/02/18 05:20:14;;;;;;;;;;;;;;;3.36;91.75;101167.50;5115208;28;19972;-66
2024/02/18 05:22:44;;;;;;;;;;;;;;;3.30;91.94;101165.56;5115382;28;19920;-66
2024/02/18 05:25:13;;;;;;;;;;;;;;;3.38;91.47;101176.06;5114536;28;20018;-66
2024/02/18 05:27:41;;;;;;;;;;;;;;;3.39;91.46;101166.03;5115091;28;19920;-66
2024/02/18 05:30:11;;;;;;;;;;;;;;;3.38;91.92;101165.97;5114617;28;19926;-66
2024/02/18 05:32:39;;;;;;;;;;;;;;;3.36;91.37;101165.84;5114983;28;19923;-66
2024/02/18 05:35:09;;;;;;;;;;;;;;;3.42;92.05;101172.00;5114636;28;19919;-66
2024/02/18 05:37:39;;;;;;;;;;;;;;;3.49;92.20;101179.09;5115115;28;20392;-66
2024/02/18 05:40:10;;;;;;;;;;;;;;;3.51;91.85;101180.94;5113022;28;19923;-66
2024/02/18 05:42:39;;;;;;;;;;;;;;;3.52;91.82;101175.09;5114860;28;19992;-66
2024/02/18 05:45:08;;;;;;;;;;;;;;;3.49;91.79;101174.06;5114776;28;19927;-66
2024/02/18 05:47:36;;;;;;;;;;;;;;;3.43;91.74;101178.81;5114367;28;19926;-66
2024/02/18 05:50:06;;;;;;;;;;;;;;;3.46;92.06;101181.47;5114708;28;20001;-66
2024/02/18 05:52:35;;;;;;;;;;;;;;;3.45;92.35;101182.28;5114390;28;19920;-65
2024/02/18 05:55:04;;;;;;;;;;;;;;;3.46;92.04;101184.00;5113548;28;19973;-66
2024/02/18 05:57:34;;;;;;;;;;;;;;;3.49;92.04;101190.06;5114778;28;19919;-65
2024/02/18 06:00:02;;;;;;;;;;;;;;;3.42;91.74;101188.03;5115078;28;19924;-66
2024/02/18 06:02:32;;;;;;;;;;;;;;;3.39;92.24;101190.38;5113711;28;20012;-66
2024/02/18 06:05:00;;;;;;;;;;;;;;;3.40;91.57;101189.59;5114290;28;19996;-66
2024/02/18 06:07:29;;;;;;;;;;;;;;;3.41;91.97;101186.28;5114693;28;19962;-66
2024/02/18 06:09:57;;;;;;;;;;;;;;;3.52;91.72;101190.25;5114321;28;20357;-65
2024/02/18 06:12:26;;;;;;;;;;;;;;;3.68;92.04;101187.69;5114314;28;19919;-66
2024/02/18 06:14:56;;;;;;;;;;;;;;;3.83;92.29;101198.59;5114507;28;19920;-66
2024/02/18 06:17:24;;;;;;;;;;;;;;;3.96;92.31;101190.81;5114225;28;19919;-66
2024/02/18 06:19:52;;;;;;;;;;;;;;;4.10;92.44;101195.69;5114451;28;19927;-66
2024/02/18 06:22:21;;;;;;;;;;;;;;;4.25;92.10;101193.94;5113793;28;20335;-66
2024/02/18 06:24:49;;;;;;;;;;;;;;;4.71;92.40;101197.84;5113797;28;20353;-65
2024/02/18 06:27:18;;;;;;;;;;;;;;;5.44;92.84;101194.47;5114484;28;19919;-66
2024/02/18 06:29:46;;;;;;;;;;;;;;;6.01;92.67;101198.66;5114462;28;19942;-66
2024/02/18 06:32:18;;;;;;;;;;;;;;;6.43;92.11;101190.25;5113897;28;20309;-66
2024/02/18 06:34:46;;;;;;;;;;;;;;;6.66;91.91;101194.56;5114456;28;20385;-67
2024/02/18 06:37:17;;;;;;;;;;;;;;;6.88;91.86;101196.28;5113850;28;19962;-66
2024/02/18 06:39:46;;;;;;;;;;;;;;;7.01;91.17;101195.03;5113471;28;19927;-67
2024/02/18 06:42:14;;;;;;;;;;;;;;;6.95;90.26;101192.28;5113761;28;19919;-66
2024/02/18 06:44:43;;;;;;;;;;;;;;;6.87;89.19;101196.19;5113945;28;19973;-67
2024/02/18 06:47:11;;;;;;;;;;;;;;;6.75;88.56;101210.16;5112941;28;20023;-66
2024/02/18 06:49:41;;;;;;;;;;;;;;;6.71;87.77;101205.78;5113253;28;19955;-67
2024/02/18 06:52:13;;;;;;;;;;;;;;;6.73;87.22;101196.53;5118110;28;19927;-66
2024/02/18 06:54:43;;;;;;;;;;;;;;;6.81;86.79;101198.50;5117984;28;19974;-67
2024/02/18 06:57:11;;;;;;;;;;;;;;;6.89;86.51;101197.97;5117936;28;19919;-67
2024/02/18 06:59:40;;;;;;;;;;;;;;;6.97;86.07;101201.69;5117975;28;20369;-66
2024/02/18 07:02:08;;;;;;;;;;;;;;;7.02;85.93;101194.25;5117926;28;19955;-67
2024/02/18 07:04:37;;;;;;;;;;;;;;;7.10;84.51;101205.56;5116272;28;19920;-66
2024/02/18 07:07:07;;;;;;;;;;;;;;;7.16;84.50;101213.41;5117636;28;19920;-67
2024/02/18 07:09:36;;;;;;;;;;;;;;;7.21;83.71;101206.81;5117753;27;19919;-66
2024/02/18 07:12:05;;;;;;;;;;;;;;;7.30;83.28;101214.78;5117665;28;19923;-67
2024/02/18 07:14:33;;;;;;;;;;;;;;;7.36;82.75;101209.94;5117598;28;20278;-66
2024/02/18 07:17:02;;;;;;;;;;;;;;;7.39;82.61;101210.03;5117200;28;19965;-66
2024/02/18 07:19:31;;;;;;;;;;;;;;;7.50;82.34;101211.28;5117430;27;20366;-66
2024/02/18 07:21:59;;;;;;;;;;;;;;;7.60;82.16;101213.34;5116175;28;19927;-66
2024/02/18 07:24:29;;;;;;;;;;;;;;;7.69;81.74;101208.59;5116742;28;19969;-67
2024/02/18 07:26:57;;;;;;;;;;;;;;;7.76;81.47;101215.63;5117419;28;20418;-67
2024/02/18 07:29:26;;;;;;;;;;;;;;;7.89;80.49;101222.84;5116945;28;20385;-66
2024/02/18 07:31:54;;;;;;;;;;;;;;;8.01;80.49;101223.25;5117333;28;20028;-67
2024/02/18 07:34:23;;;;;;;;;;;;;;;8.11;80.07;101220.22;5117132;28;19920;-66
2024/02/18 07:36:51;;;;;;;;;;;;;;;8.21;79.64;101215.44;5117238;28;19924;-66
2024/02/18 07:39:20;;;;;;;;;;;;;;;8.28;78.93;101225.06;5115904;28;19920;-68
2024/02/18 07:41:50;;;;;;;;;;;;;;;8.35;79.08;101227.00;5115828;28;19976;-67
2024/02/18 07:44:18;;;;;;;;;;;;;;;8.45;79.13;101221.38;5116852;28;19920;-67
2024/02/18 07:46:47;;;;;;;;;;;;;;;8.56;78.27;101220.06;5116897;28;19920;-67
2024/02/18 07:49:18;;;;;;;;;;;;;;;8.70;78.40;101229.00;5117320;28;19920;-67
2024/02/18 07:51:47;;;;;;;;;;;;;;;8.77;77.58;101228.38;5116875;28;19920;-67
2024/02/18 07:54:15;;;;;;;;;;;;;;;8.84;77.03;101232.81;5115620;28;19919;-67
2024/02/18 07:56:45;;;;;;;;;;;;;;;8.91;76.32;101232.19;5115473;28;19920;-67
2024/02/18 07:59:16;;;;;;;;;;;;;;;8.98;76.00;101231.56;5116768;28;19919;-67
2024/02/18 08:01:45;;;;;;;;;;;;;;;9.08;75.98;101225.06;5115933;27;19970;-68
2024/02/18 08:04:14;;;;;;;;;;;;;;;9.18;75.49;101225.41;5116394;28;19920;-69
2024/02/18 08:06:42;;;;;;;;;;;;;;;9.25;74.89;101227.31;5115759;28;19965;-67
2024/02/18 08:09:15;;;;;;;;;;;;;;;9.26;73.61;101223.91;5116565;28;19969;-67
2024/02/18 08:11:45;;;;;;;;;;;;;;;9.35;73.16;101224.22;5116479;28;20365;-67
2024/02/18 08:14:15;;;;;;;;;;;;;;;9.40;72.18;101220.13;5116177;28;19968;-67
2024/02/18 08:16:43;;;;;;;;;;;;;;;9.49;72.01;101218.63;5116488;28;19920;-68
2024/02/18 08:19:11;;;;;;;;;;;;;;;9.60;71.69;101219.81;5116027;28;20369;-68
2024/02/18 08:21:40;;;;;;;;;;;;;;;9.62;70.45;101218.16;5098047;28;19924;-66
2024/02/18 08:24:10;;;;;;;;;;;;;;;9.58;69.54;101216.34;5115832;28;19920;-68
2024/02/18 08:26:39;;;;;;;;;;;;;;;9.56;68.51;101218.84;5116023;28;20035;-68
2024/02/18 08:29:08;;;;;;;;;;;;;;;9.68;68.85;101220.88;5114883;28;19973;-68
2024/02/18 08:31:38;;;;;;;;;;;;;;;9.77;68.95;101221.13;5114837;28;19926;-67
2024/02/18 08:34:07;;;;;;;;;;;;;;;9.81;68.38;101225.50;5115783;28;19961;-68
2024/02/18 08:36:35;;;;;;;;;;;;;;;9.96;68.25;101220.78;5115952;28;20353;-68
2024/02/18 08:39:04;;;;;;;;;;;;;;;10.07;68.01;101219.41;5115847;28;19942;-68
2024/02/18 08:41:32;;;;;;;;;;;;;;;10.11;67.11;101216.09;5114653;28;19930;-68
2024/02/18 08:44:01;;;;;;;;;;;;;;;10.00;65.99;101222.59;5115789;28;19963;-67
2024/02/18 08:46:29;;;;;;;;;;;;;;;10.06;65.62;101218.53;5114201;28;19924;-68
2024/02/18 08:48:59;;;;;;;;;;;;;;;10.24;65.59;101212.19;5115352;28;20385;-68
2024/02/18 08:51:28;;;;;;;;;;;;;;;10.34;65.00;101217.56;5115763;28;19930;-67
2024/02/18 08:53:56;;;;;;;;;;;;;;;10.30;64.14;101218.31;5115517;28;19927;-67
2024/02/18 08:56:25;;;;;;;;;;;;;;;10.44;64.44;101227.16;5115559;28;20018;-68
2024/02/18 08:58:53;;;;;;;;;;;;;;;10.55;64.15;101227.44;5114332;28;19942;-68
2024/02/18 09:01:22;;;;;;;;;;;;;;;10.53;63.64;101217.19;5115651;28;19923;-68
2024/02/18 09:03:50;;;;;;;;;;;;;;;10.57;63.13;101224.09;5115392;28;19920;-67
2024/02/18 09:06:20;;;;;;;;;;;;;;;10.61;62.92;101215.69;5113892;28;19927;-68
2024/02/18 09:08:49;;;;;;;;;;;;;;;10.68;62.64;101214.13;5115420;28;19923;-69
2024/02/18 09:11:17;;;;;;;;;;;;;;;10.70;62.03;101215.88;5114972;28;20370;-68
2024/02/18 09:13:46;;;;;;;;;;;;;;;10.78;61.93;101211.84;5115226;28;19969;-68
2024/02/18 09:16:14;;;;;;;;;;;;;;;10.86;61.87;101203.47;5114939;28;19920;-68
2024/02/18 09:18:45;;;;;;;;;;;;;;;10.88;60.84;101201.81;5097053;28;20066;-69
2024/02/18 09:21:13;;;;;;;;;;;;;;;10.72;59.86;101209.13;5115287;27;19973;-67
2024/02/18 09:23:43;;;;;;;;;;;;;;;10.73;60.42;101213.41;5114748;28;19920;-67
2024/02/18 09:26:12;;;;;;;;;;;;;;;10.90;60.90;101212.94;5105909;28;20266;-68
2024/02/18 09:28:41;;;;;;;;;;;;;;;11.07;60.78;101211.63;5093423;28;20379;-68
2024/02/18 09:31:09;;;;;;;;;;;;;;;11.17;60.59;101214.41;5076551;28;20328;-68
2024/02/18 09:33:39;;;;;;;;;;;;;;;11.28;60.20;101212.06;5094892;28;20281;-68
2024/02/18 09:36:08;;;;;;;;;;;;;;;11.28;59.49;101206.94;5094227;28;19920;-68
2024/02/18 09:38:36;;;;;;;;;;;;;;;11.32;59.07;101203.66;5094587;28;19920;-70
2024/02/18 09:41:06;;;;;;;;;;;;;;;11.23;57.95;101213.66;5076428;28;19920;-68
2024/02/18 09:43:41;;;;;;;;;;;;;;;11.09;57.24;101204.84;5094236;28;19952;-67
2024/02/18 09:46:13;;;;;;;;;;;;;;;11.12;56.70;101189.56;5076181;28;20010;-69
2024/02/18 09:48:42;;;;;;;;;;;;;;;11.09;57.09;101195.47;5094470;28;20013;-68
2024/02/18 09:51:12;;;;;;;;;;;;;;;11.24;57.26;101184.72;5094470;28;19955;-67
2024/02/18 09:53:40;;;;;;;;;;;;;;;11.39;57.09;101185.91;5094069;28;19959;-68
2024/02/18 09:56:10;;;;;;;;;;;;;;;11.64;57.31;101179.56;5094312;28;19927;-68
2024/02/18 09:58:39;;;;;;;;;;;;;;;11.67;56.38;101171.09;5094378;28;19945;-68
2024/02/18 10:01:08;;;;;;;;;;;;;;;11.79;55.85;101177.34;5093100;28;19973;-68
2024/02/18 10:03:37;;;;;;;;;;;;;;;11.73;55.04;101182.34;5093808;28;19924;-69
2024/02/18 10:06:05;;;;;;;;;;;;;;;11.37;54.34;101171.38;5093269;28;20278;-69
2024/02/18 10:08:41;;;;;;;;;;;;;;;11.33;54.60;101179.78;5094239;28;19977;-69
2024/02/18 10:11:11;;;;;;;;;;;;;;;11.31;54.42;101172.09;5094005;28;20267;-68
2024/02/18 10:13:39;;;;;;;;;;;;;;;11.49;54.36;101175.88;5093906;28;19920;-68
2024/02/18 10:16:08;;;;;;;;;;;;;;;11.44;53.34;101170.66;5094107;28;19920;-67
2024/02/18 10:18:37;;;;;;;;;;;;;;;11.60;54.39;101167.56;5094179;28;19974;-69
2024/02/18 10:21:07;;;;;;;;;;;;;;;11.81;54.12;101165.44;5093787;28;19967;-68
2024/02/18 10:23:36;;;;;;;;;;;;;;;11.58;53.10;101156.44;5094046;28;19920;-69
2024/02/18 10:26:07;;;;;;;;;;;;;;;11.51;53.30;101157.16;5096681;28;19920;-68
2024/02/18 10:28:39;;;;;;;;;;;;;;;11.71;53.97;101153.28;5096717;28;19924;-68
2024/02/18 10:31:11;;;;;;;;;;;;;;;11.93;53.83;101155.41;5097829;28;20400;-68
2024/02/18 10:33:41;;;;;;;;;;;;;;;11.96;53.21;101149.47;5097958;28;19920;-68
2024/02/18 10:36:11;;;;;;;;;;;;;;;12.10;53.25;101154.00;5098059;28;19974;-69
2024/02/18 10:38:43;;;;;;;;;;;;;;;12.02;52.98;101154.72;5097707;28;19927;-69
2024/02/18 10:41:13;;;;;;;;;;;;;;;12.04;52.34;101148.75;5096629;28;19969;-67
2024/02/18 10:43:46;;;;;;;;;;;;;;;12.01;52.40;101148.75;5097457;28;20266;-70
2024/02/18 10:46:15;;;;;;;;;;;;;;;12.18;52.36;101140.47;5097372;28;19967;-70
2024/02/18 10:48:44;;;;;;;;;;;;;;;12.30;52.55;101131.28;5097264;28;20367;-69
2024/02/18 10:51:14;;;;;;;;;;;;;;;12.39;51.97;101125.44;5097552;28;19974;-69
2024/02/18 10:53:46;;;;;;;;;;;;;;;12.21;51.11;101122.59;5096802;28;20029;-69
2024/02/18 10:56:19;;;;;;;;;;;;;;;11.73;51.72;101120.97;5097115;28;19927;-69
2024/02/18 10:58:57;;;;;;;;;;;;;;;11.74;51.60;101115.00;5096037;28;19943;-70
2024/02/18 11:01:28;;;;;;;;;;;;;;;11.62;51.52;101114.75;5097627;28;19920;-69
2024/02/18 11:03:59;;;;;;;;;;;;;;;11.69;52.04;101108.94;5097509;28;19920;-69
2024/02/18 11:06:31;;;;;;;;;;;;;;;11.79;51.62;101105.72;5097322;28;19970;-68
2024/02/18 11:09:00;;;;;;;;;;;;;;;11.79;51.86;101104.84;5096066;28;19920;-68
2024/02/18 11:11:29;;;;;;;;;;;;;;;11.96;51.61;101104.28;5096061;28;19942;-68
2024/02/18 11:14:00;;;;;;;;;;;;;;;12.18;51.46;101102.06;5096895;28;19959;-70
2024/02/18 11:16:30;;;;;;;;;;;;;;;12.18;50.89;101094.41;5097416;28;19955;-68
2024/02/18 11:19:03;;;;;;;;;;;;;;;11.99;51.14;101078.75;5097238;28;19989;-69
2024/02/18 11:21:32;;;;;;;;;;;;;;;12.08;51.18;101071.22;5097079;28;20015;-68
2024/02/18 11:24:01;;;;;;;;;;;;;;;11.99;51.52;101071.09;5097017;28;19920;-68
2024/02/18 11:26:29;;;;;;;;;;;;;;;12.16;51.28;101070.47;5096736;28;19927;-68
2024/02/18 11:29:02;;;;;;;;;;;;;;;12.37;50.97;101065.66;5096635;28;20380;-68
2024/02/18 11:31:31;;;;;;;;;;;;;;;12.20;50.43;101056.88;5096926;28;20362;-68
2024/02/18 11:33:59;;;;;;;;;;;;;;;11.93;50.87;101063.31;5096859;28;19924;-69
2024/02/18 11:36:28;;;;;;;;;;;;;;;11.97;50.61;101054.81;5094442;28;20009;-68
2024/02/18 11:38:58;;;;;;;;;;;;;;;12.25;50.88;101045.00;5096802;28;19920;-68
2024/02/18 11:41:28;;;;;;;;;;;;;;;12.36;50.39;101039.19;5095605;28;20453;-67
2024/02/18 11:43:57;;;;;;;;;;;;;;;12.47;50.54;101036.78;5096540;28;19920;-67
2024/02/18 11:46:29;;;;;;;;;;;;;;;12.67;50.06;101036.19;5096852;28;19943;-66
2024/02/18 11:48:57;;;;;;;;;;;;;;;12.64;49.20;101025.91;5096617;28;19965;-68
2024/02/18 11:51:27;;;;;;;;;;;;;;;12.39;49.91;101025.56;5095120;28;20392;-69
2024/02/18 11:53:57;;;;;;;;;;;;;;;12.27;50.12;101022.84;5095342;28;20369;-67
2024/02/18 11:56:25;;;;;;;;;;;;;;;12.43;50.21;101019.69;5096071;28;20389;-68
2024/02/18 11:58:54;;;;;;;;;;;;;;;12.56;49.70;101021.53;5096713;28;20429;-69
2024/02/18 12:01:25;;;;;;;;;;;;;;;12.64;49.74;101025.06;5095264;28;20022;-69
2024/02/18 12:03:56;;;;;;;;;;;;;;;12.58;49.21;101020.72;5096515;28;20138;-67
2024/02/18 12:06:25;;;;;;;;;;;;;;;12.55;49.53;101010.44;5096145;28;19970;-67
2024/02/18 12:08:54;;;;;;;;;;;;;;;12.64;49.69;101005.41;5096173;28;19934;-70
2024/02/18 12:11:22;;;;;;;;;;;;;;;13.05;49.79;101003.31;5096142;28;19920;-70
2024/02/18 12:13:51;;;;;;;;;;;;;;;13.04;48.93;100991.38;5094837;28;19920;-69
2024/02/18 12:16:20;;;;;;;;;;;;;;;12.91;48.93;100989.50;5095893;28;19959;-68
2024/02/18 12:18:49;;;;;;;;;;;;;;;12.83;49.27;100988.56;5104284;28;19924;-69
2024/02/18 12:21:19;;;;;;;;;;;;;;;13.03;49.57;100992.19;5116330;28;19919;-70
2024/02/18 12:23:48;;;;;;;;;;;;;;;13.21;49.19;100995.00;5116170;28;19927;-68
2024/02/18 12:26:17;;;;;;;;;;;;;;;13.26;48.61;100993.34;5115647;28;19927;-68
2024/02/18 12:28:48;;;;;;;;;;;;;;;13.17;48.42;100988.09;5114941;28;20367;-68
2024/02/18 12:31:17;;;;;;;;;;;;;;;13.21;48.38;100982.16;5114984;28;19966;-69
2024/02/18 12:33:48;;;;;;;;;;;;;;;13.26;47.87;100985.66;5116100;28;19920;-69
2024/02/18 12:36:19;;;;;;;;;;;;;;;13.22;47.10;100976.19;5116063;28;20380;-69
2024/02/18 12:38:48;;;;;;;;;;;;;;;13.16;47.37;100978.69;5114785;28;19961;-69
2024/02/18 12:41:17;;;;;;;;;;;;;;;13.14;47.17;100970.13;5116228;28;19965;-68
2024/02/18 12:43:47;;;;;;;;;;;;;;;13.17;46.63;100974.44;5115745;28;20373;-66
2024/02/18 12:46:21;;;;;;;;;;;;;;;13.29;46.91;100966.88;5115860;28;19962;-67
2024/02/18 12:48:50;;;;;;;;;;;;;;;13.28;46.56;100968.56;5115131;28;19920;-69
2024/02/18 12:51:26;;;;;;;;;;;;;;;13.24;46.48;100964.25;5113983;28;20023;-70
2024/02/18 12:53:57;;;;;;;;;;;;;;;13.52;46.65;100960.22;5099988;28;19924;-71